11:25
Airports
Links
Donate
Help keep this website running!
PayPal
Bitcoin
METAR
KCOD 111056Z AUTO 28003KT 10SM CLR M03/M12 A3040 RMK AO2 SLP325 T10281122 FZRANO
Current Weather Conditions at KCOD
VFR 10:56:00 11-12-17
Automated station, no observer
Altimeter:30.40 hg
Temp:-2.8°c 28°f
Dew point:-12.2°c 10°f
Wind:3 knots, 3.5 mph, 2 m/s, from 280°
Visibility:10.0 statute miles
(CLR) Clear
Past METAR reports
VFR 09:56:00 11-12-17
Automated station, no observer
Altimeter:30.40 hg
Temp:1.7°c 34°f
Dew point:-13.9°cf
Wind:4 knots, 4.6 mph, 2 m/s, from 100°
Visibility:10.0 statute miles
(CLR) Clear
KCOD 110956Z AUTO 10004KT 10SM CLR 02/M14 A3040 RMK AO2 SLP320 T00171139 FZRANO
VFR 08:56:00 11-12-17
Automated station, no observer
Altimeter:30.39 hg
Temp:1.1°c 34°f
Dew point:-13.9°cf
Wind:0 knots, 0 mph, 0 m/s,
Variable direction
Visibility:10.0 statute miles
(CLR) Clear
KCOD 110856Z AUTO 00000KT 10SM CLR 01/M14 A3039 RMK AO2 SLP318 T00111139 53005 FZRANO
VFR 06:56:00 11-12-17
Automated station, no observer
Altimeter:30.38 hg
Temp:5.0°c 41°f
Dew point:-13.9°cf
Wind:0 knots, 0 mph, 0 m/s,
Variable direction
Visibility:10.0 statute miles
(CLR) Clear
KCOD 110656Z AUTO 00000KT 10SM CLR 05/M14 A3038 RMK AO2 SLP286 T00501139 401501061
VFR 05:56:00 11-12-17
Automated station, no observer
Altimeter:30.38 hg
Temp:3.9°c 37°f
Dew point:-14.4°cf
Wind:0 knots, 0 mph, 0 m/s,
Variable direction
Visibility:10.0 statute miles
(CLR) Clear
KCOD 110556Z AUTO 00000KT 10SM CLR 04/M14 A3038 RMK AO2 SLP299 T00391144 10106 21044 50005
TAF
KCOD 110529Z 1106/1206 VRB05KT P6SM SCT250 FM111700 03007KT P6SM SCT250 FM120300 21006KT P6SM SCT250 AMD LTD TO CLD VIS AND WIND
Forecast at KCOD
06:00 11-12-17 to 17:00 11-12-17
Wind:5 Knots from 360°
Visibility:6.21 statute miles
25000SCT Scattered
FM 17:00 11-12-17 to 03:00 12-12-17
Wind:7 Knots from 30°
Visibility:6.21 statute miles
25000SCT Scattered
FM 03:00 12-12-17 to 06:00 12-12-17
Wind:6 Knots from 210°
Visibility:6.21 statute miles
25000SCT Scattered